createdAt,value
2023-02-11T00:02:05.312Z,10.05
2023-02-11T00:04:33.036Z,10.70
2023-02-11T00:07:07.266Z,10.20
2023-02-11T00:09:38.925Z,12.23
2023-02-11T00:12:12.916Z,10.88
2023-02-11T00:14:43.708Z,12.25
2023-02-11T00:17:11.404Z,10.77
2023-02-11T00:19:40.044Z,12.57
2023-02-11T00:22:07.724Z,10.95
2023-02-11T00:24:36.608Z,11.38
2023-02-11T00:27:04.358Z,11.75
2023-02-11T00:29:31.974Z,12.15
2023-02-11T00:32:14.517Z,11.88
2023-02-11T00:34:51.315Z,13.68
2023-02-11T00:37:23.604Z,13.02
2023-02-11T00:39:51.391Z,13.55
2023-02-11T00:42:21.215Z,13.77
2023-02-11T00:44:54.885Z,13.30
2023-02-11T00:47:22.749Z,15.00
2023-02-11T00:49:52.573Z,14.90
2023-02-11T00:52:20.484Z,15.05
2023-02-11T00:55:13.269Z,13.95
2023-02-11T00:57:43.222Z,14.43
2023-02-11T01:00:15.476Z,15.45
2023-02-11T01:02:43.148Z,14.20
2023-02-11T01:05:12.956Z,14.52
2023-02-11T01:07:45.307Z,15.48
2023-02-11T01:10:13.284Z,14.38
2023-02-11T01:12:41.419Z,14.75
2023-02-11T01:15:23.418Z,14.45
2023-02-11T01:17:51.228Z,15.20
2023-02-11T01:20:25.034Z,18.07
2023-02-11T01:22:52.724Z,15.32
2023-02-11T01:25:21.866Z,16.10
2023-02-11T01:27:49.529Z,15.57
2023-02-11T01:30:17.491Z,14.60
2023-02-11T01:32:46.867Z,17.23
2023-02-11T01:35:14.692Z,18.77
2023-02-11T01:37:44.525Z,16.73
2023-02-11T01:40:14.200Z,16.27
2023-02-11T01:42:45.385Z,18.02
2023-02-11T01:45:31.770Z,17.35
2023-02-11T01:48:02.497Z,17.08
2023-02-11T01:50:30.211Z,16.73
2023-02-11T01:53:17.896Z,19.23
2023-02-11T01:56:05.639Z,16.13
2023-02-11T01:58:33.917Z,17.30
2023-02-11T02:01:03.166Z,16.63
2023-02-11T02:11:19.407Z,21.00
2023-02-11T02:28:43.107Z,18.00
2023-02-11T02:32:25.196Z,17.52
2023-02-11T04:10:24.375Z,22.25
2023-02-11T04:17:56.613Z,21.15
2023-02-11T05:10:07.081Z,19.75
2023-02-11T05:18:30.129Z,19.35
2023-02-11T05:50:05.248Z,22.15
2023-02-11T06:15:16.552Z,23.52
2023-02-11T06:17:54.358Z,23.88
2023-02-11T06:25:01.323Z,21.92
2023-02-11T06:27:50.804Z,21.20
2023-02-11T06:30:18.390Z,22.63
2023-02-11T06:32:46.311Z,22.02
2023-02-11T06:35:14.563Z,22.00
2023-02-11T06:37:42.737Z,23.63
2023-02-11T06:40:10.878Z,23.40
2023-02-11T06:42:39.317Z,23.10
2023-02-11T06:45:09.097Z,21.85
2023-02-11T06:47:36.542Z,23.10
2023-02-11T06:50:04.132Z,21.30
2023-02-11T06:52:31.551Z,22.45
2023-02-11T06:54:59.072Z,23.85
2023-02-11T06:57:26.557Z,22.40
2023-02-11T06:59:56.348Z,21.38
2023-02-11T07:02:23.951Z,22.63
2023-02-11T07:04:51.418Z,23.25
2023-02-11T07:07:21.216Z,22.83
2023-02-11T07:09:48.724Z,22.95
2023-02-11T07:12:16.266Z,22.58
2023-02-11T07:14:43.778Z,22.38
2023-02-11T07:17:11.401Z,24.27
2023-02-11T07:19:38.914Z,21.60
2023-02-11T07:22:06.361Z,21.52
2023-02-11T07:24:33.847Z,20.05
2023-02-11T07:27:01.337Z,22.58
2023-02-11T07:29:31.008Z,20.67
2023-02-11T07:32:01.074Z,21.42
2023-02-11T07:34:29.208Z,20.85
2023-02-11T07:36:56.657Z,22.85
2023-02-11T07:39:27.615Z,21.23
2023-02-11T07:41:55.277Z,21.13
2023-02-11T07:44:23.024Z,22.80
2023-02-11T07:46:50.756Z,20.17
2023-02-11T07:49:18.311Z,19.40
2023-02-11T07:51:46.140Z,19.17
2023-02-11T07:54:15.010Z,21.55
2023-02-11T07:56:42.600Z,18.17
2023-02-11T07:59:12.675Z,18.35
2023-02-11T08:01:43.253Z,19.55
2023-02-11T08:04:12.627Z,19.02
2023-02-11T08:06:43.584Z,17.25
2023-02-11T08:09:13.959Z,17.88
2023-02-11T08:11:41.403Z,18.15
2023-02-11T08:14:12.107Z,18.17
2023-02-11T08:16:40.124Z,18.50
2023-02-11T08:19:15.151Z,17.27
2023-02-11T08:21:43.096Z,18.17
2023-02-11T08:24:10.803Z,15.30
2023-02-11T08:26:38.830Z,17.10
2023-02-11T08:29:09.263Z,16.23
2023-02-11T08:31:41.033Z,16.10
2023-02-11T08:34:15.838Z,17.10
2023-02-11T08:36:44.781Z,15.90
2023-02-11T08:39:22.863Z,17.85
2023-02-11T08:41:53.411Z,15.65
2023-02-11T08:44:22.127Z,17.42
2023-02-11T08:46:59.315Z,15.80
2023-02-11T08:49:30.839Z,15.20
2023-02-11T08:52:02.262Z,16.23
2023-02-11T08:54:29.870Z,14.75
2023-02-11T08:56:57.670Z,13.50
2023-02-11T08:59:25.290Z,15.07
2023-02-11T09:01:54.688Z,14.27
2023-02-11T09:04:25.747Z,13.45
2023-02-11T09:06:53.186Z,11.93
2023-02-11T09:09:21.090Z,12.73
2023-02-11T09:11:48.681Z,12.65
2023-02-11T09:14:18.474Z,11.93
2023-02-11T09:16:45.974Z,12.55
2023-02-11T09:19:13.503Z,12.20
2023-02-11T09:21:41.110Z,11.20
2023-02-11T09:24:08.658Z,10.43
2023-02-11T09:26:36.830Z,13.38
2023-02-11T09:29:04.975Z,10.82
2023-02-11T09:31:33.642Z,12.25
2023-02-11T09:34:02.557Z,9.80
2023-02-11T09:36:34.554Z,9.45
2023-02-11T09:39:02.838Z,9.80
2023-02-11T09:41:41.481Z,8.13
2023-02-11T09:44:11.100Z,9.95
2023-02-11T09:46:41.094Z,9.73
2023-02-11T09:49:08.641Z,9.00
2023-02-11T09:51:55.640Z,9.30
2023-02-11T09:54:32.316Z,8.32
2023-02-11T09:56:59.833Z,7.85
2023-02-11T09:59:27.395Z,7.60
2023-02-11T10:01:58.363Z,7.43
2023-02-11T10:04:28.990Z,7.28
2023-02-11T10:07:00.841Z,7.32
2023-02-11T10:09:37.861Z,7.10
2023-02-11T10:12:17.680Z,6.45
2023-02-11T10:14:48.229Z,6.68
2023-02-11T10:17:34.344Z,7.25
2023-02-11T10:20:01.850Z,6.43
2023-02-11T10:22:31.926Z,6.82
2023-02-11T10:25:00.475Z,6.10
2023-02-11T10:27:31.841Z,6.50
2023-02-11T10:30:19.162Z,5.63
2023-02-11T10:32:58.933Z,5.85
2023-02-11T10:35:27.272Z,6.00
2023-02-11T10:37:59.814Z,6.72
2023-02-11T10:40:30.907Z,5.22
2023-02-11T10:43:00.510Z,6.07
2023-02-11T10:45:29.383Z,5.25
2023-02-11T10:47:57.151Z,4.93
2023-02-11T10:50:24.693Z,6.53
2023-02-11T10:53:11.645Z,5.68
2023-02-11T10:55:39.118Z,5.10
2023-02-11T10:58:08.531Z,6.72
2023-02-11T11:00:38.889Z,5.05
2023-02-11T11:03:18.732Z,6.70
2023-02-11T11:05:51.212Z,4.68
2023-02-11T11:08:19.233Z,5.40
2023-02-11T11:11:03.789Z,4.75
2023-02-11T11:13:58.408Z,4.57
2023-02-11T11:16:36.115Z,4.15
2023-02-11T11:19:10.904Z,4.45
2023-02-11T11:21:48.580Z,4.78
2023-02-11T11:24:18.774Z,4.60
2023-02-11T11:26:48.608Z,4.07
2023-02-11T11:29:19.495Z,4.35
2023-02-11T11:31:54.567Z,4.25
2023-02-11T11:34:30.651Z,3.40
2023-02-11T11:36:58.884Z,3.28
2023-02-11T11:39:34.591Z,4.38
2023-02-11T11:42:05.199Z,3.65
2023-02-11T11:44:32.700Z,4.35
2023-02-11T11:47:18.661Z,3.75
2023-02-11T11:49:57.247Z,4.13
2023-02-11T11:52:34.592Z,4.38
2023-02-11T11:55:08.489Z,4.07
2023-02-11T11:57:38.086Z,3.10
2023-02-11T12:00:08.682Z,3.95
2023-02-11T12:02:47.178Z,4.75
2023-02-11T12:05:19.797Z,3.92
2023-02-11T12:07:56.488Z,3.13
2023-02-11T12:10:27.060Z,3.75
2023-02-11T12:13:03.756Z,4.18
2023-02-11T12:15:44.348Z,3.65
2023-02-11T12:18:15.019Z,4.38
2023-02-11T12:20:57.877Z,3.20
2023-02-11T12:23:41.546Z,4.47
2023-02-11T12:26:14.557Z,4.68
2023-02-11T12:29:00.773Z,3.78
2023-02-11T12:31:34.180Z,3.78
2023-02-11T12:34:10.707Z,3.25
2023-02-11T12:36:44.391Z,4.03
2023-02-11T12:39:33.978Z,3.05
2023-02-11T12:42:29.226Z,2.95
2023-02-11T12:45:14.285Z,3.85
2023-02-11T12:48:00.338Z,4.13
2023-02-11T12:50:35.692Z,3.60
2023-02-11T12:53:23.530Z,4.53
2023-02-11T12:55:54.804Z,4.07
2023-02-11T12:58:35.546Z,3.65
2023-02-11T13:01:23.018Z,3.15
2023-02-11T13:03:56.958Z,3.13
2023-02-11T13:06:28.555Z,3.45
2023-02-11T13:08:59.475Z,3.13
2023-02-11T13:11:33.582Z,3.22
2023-02-11T13:14:08.426Z,3.72
2023-02-11T13:16:47.513Z,2.97
2023-02-11T13:19:18.155Z,3.08
2023-02-11T13:22:01.570Z,3.20
2023-02-11T13:24:32.365Z,3.67
2023-02-11T13:27:09.060Z,3.92
2023-02-11T13:29:56.260Z,3.25
2023-02-11T13:32:23.713Z,3.17
2023-02-11T13:34:58.538Z,3.97
2023-02-11T13:37:27.486Z,4.50
2023-02-11T13:40:00.278Z,3.13
2023-02-11T13:42:28.568Z,4.05
2023-02-11T13:44:56.642Z,3.58
2023-02-11T13:47:39.318Z,3.58
2023-02-11T13:50:09.338Z,4.32
2023-02-11T13:52:40.262Z,3.15
2023-02-11T13:55:10.862Z,3.65
2023-02-11T13:57:39.901Z,3.50
2023-02-11T14:00:10.540Z,3.38
2023-02-11T14:02:57.135Z,3.45
2023-02-11T14:05:43.179Z,3.13
2023-02-11T14:08:29.256Z,3.40
2023-02-11T14:10:56.730Z,3.55
2023-02-11T14:13:25.105Z,3.22
2023-02-11T14:16:11.680Z,3.22
2023-02-11T14:18:42.992Z,3.33
2023-02-11T14:21:13.711Z,3.47
2023-02-11T14:23:41.699Z,3.55
2023-02-11T14:26:21.541Z,3.78
2023-02-11T14:28:50.877Z,4.10
2023-02-11T14:31:31.497Z,3.60
2023-02-11T14:34:08.192Z,3.00
2023-02-11T14:36:44.749Z,4.20
2023-02-11T14:39:30.697Z,3.53
2023-02-11T14:41:58.306Z,3.88
2023-02-11T14:44:32.091Z,3.72
2023-02-11T14:47:00.040Z,3.00
2023-02-11T14:49:35.984Z,3.67
2023-02-11T14:52:22.366Z,3.30
2023-02-11T14:54:50.953Z,4.05
2023-02-11T14:57:19.722Z,3.05
2023-02-11T15:00:13.674Z,2.90
2023-02-11T15:02:41.618Z,3.33
2023-02-11T15:05:26.046Z,4.22
2023-02-11T15:07:57.371Z,4.28
2023-02-11T15:10:37.037Z,3.60
2023-02-11T15:13:05.724Z,2.92
2023-02-11T15:15:35.825Z,4.43
2023-02-11T15:18:04.452Z,3.78
2023-02-11T15:20:33.323Z,3.85
2023-02-11T15:23:02.221Z,4.50
2023-02-11T15:25:31.780Z,3.47
2023-02-11T15:28:01.705Z,3.33
2023-02-11T15:30:30.993Z,2.53
2023-02-11T15:33:03.323Z,3.20
2023-02-11T15:35:32.657Z,2.85
2023-02-11T15:38:00.780Z,3.50
2023-02-11T15:40:30.063Z,4.15
2023-02-11T15:43:05.046Z,2.38
2023-02-11T15:45:43.506Z,4.18
2023-02-11T15:48:13.421Z,3.50
2023-02-11T15:50:41.867Z,3.13
2023-02-11T15:53:28.213Z,3.42
2023-02-11T15:56:15.952Z,3.30
2023-02-11T15:58:47.879Z,4.80
2023-02-11T16:01:17.132Z,3.85
2023-02-11T16:03:44.970Z,3.97
2023-02-11T16:06:16.502Z,3.53
2023-02-11T16:08:44.227Z,3.22
2023-02-11T16:11:25.891Z,3.85
2023-02-11T16:13:55.620Z,4.38
2023-02-11T16:16:28.073Z,3.40
2023-02-11T16:19:06.008Z,3.10
2023-02-11T16:21:39.304Z,4.43
2023-02-11T16:24:08.208Z,4.15
2023-02-11T16:26:39.309Z,3.47
2023-02-11T16:29:08.567Z,5.00
2023-02-11T16:31:37.755Z,3.33
2023-02-11T16:34:16.004Z,3.00
2023-02-11T16:36:43.885Z,3.95
2023-02-11T16:39:11.699Z,3.40
2023-02-11T16:41:39.470Z,5.22
2023-02-11T16:44:07.216Z,3.90
2023-02-11T16:46:37.549Z,4.43
2023-02-11T16:49:09.798Z,5.38
2023-02-11T16:51:39.907Z,4.40
2023-02-11T16:54:07.478Z,3.17
2023-02-11T16:56:35.012Z,3.67
2023-02-11T16:59:02.871Z,3.70
2023-02-11T17:01:30.662Z,2.75
2023-02-11T17:03:58.202Z,3.67
2023-02-11T17:06:26.160Z,3.80
2023-02-11T17:08:53.584Z,3.75
2023-02-11T17:11:21.029Z,4.40
2023-02-11T17:13:48.542Z,4.30
2023-02-11T17:16:20.443Z,4.82
2023-02-11T17:18:48.789Z,4.57
2023-02-11T17:21:16.785Z,4.00
2023-02-11T17:23:46.087Z,4.25
2023-02-11T17:26:13.615Z,3.55
2023-02-11T17:28:41.133Z,4.78
2023-02-11T17:31:09.514Z,4.65
2023-02-11T17:33:37.904Z,6.30
2023-02-11T17:36:07.108Z,3.83
2023-02-11T17:38:35.314Z,4.53
2023-02-11T17:41:03.478Z,5.53
2023-02-11T17:43:31.246Z,5.32
2023-02-11T17:45:58.866Z,4.47
2023-02-11T17:48:26.498Z,4.38
2023-02-11T17:50:57.656Z,5.53
2023-02-11T17:53:25.268Z,4.75
2023-02-11T17:55:53.050Z,5.68
2023-02-11T17:58:20.818Z,5.28
2023-02-11T18:00:48.342Z,6.18
2023-02-11T18:03:15.984Z,5.28
2023-02-11T18:05:43.493Z,6.13
2023-02-11T18:08:13.272Z,6.40
2023-02-11T18:10:43.204Z,5.53
2023-02-11T18:13:10.852Z,4.95
2023-02-11T18:15:38.400Z,7.38
2023-02-11T18:18:05.908Z,5.43
2023-02-11T18:20:33.348Z,4.57
2023-02-11T18:23:00.867Z,5.15
2023-02-11T18:25:29.907Z,4.63
2023-02-11T18:27:57.529Z,5.38
2023-02-11T18:30:28.168Z,5.63
2023-02-11T18:32:57.942Z,6.88
2023-02-11T18:35:25.504Z,6.75
2023-02-11T18:37:56.240Z,7.80
2023-02-11T18:40:28.240Z,6.20
2023-02-11T18:42:55.755Z,5.78
2023-02-11T18:45:24.031Z,5.45
2023-02-11T18:47:53.880Z,4.93
2023-02-11T18:50:22.202Z,4.75
2023-02-11T18:52:53.903Z,5.28
2023-02-11T18:55:27.368Z,6.18
2023-02-11T18:57:55.263Z,5.40
2023-02-11T19:00:23.116Z,6.70
2023-02-11T19:02:53.022Z,7.53
2023-02-11T19:05:21.609Z,7.57
2023-02-11T19:07:49.117Z,9.70
2023-02-11T19:10:16.757Z,8.50
2023-02-11T19:12:44.360Z,9.20
2023-02-11T19:15:13.988Z,7.78
2023-02-11T19:17:41.652Z,9.05
2023-02-11T19:20:09.541Z,7.05
2023-02-11T19:22:37.817Z,8.88
2023-02-11T19:25:05.662Z,6.93
2023-02-11T19:27:33.327Z,5.20
2023-02-11T19:30:00.930Z,5.50
2023-02-11T19:32:28.702Z,6.78
2023-02-11T19:34:57.526Z,7.53
2023-02-11T19:37:27.328Z,7.18
2023-02-11T19:39:54.896Z,7.65
2023-02-11T19:42:22.490Z,6.18
2023-02-11T19:44:52.351Z,7.63
2023-02-11T19:47:20.093Z,9.80
2023-02-11T19:49:47.653Z,10.32
2023-02-11T19:52:15.617Z,8.35
2023-02-11T19:54:43.226Z,8.27
2023-02-11T19:57:10.898Z,7.05
2023-02-11T19:59:45.758Z,5.20
2023-02-11T20:07:09.920Z,10.23
2023-02-11T20:09:22.241Z,7.85
2023-02-11T20:12:15.351Z,6.20
2023-02-11T20:18:16.443Z,7.20
2023-02-11T20:21:29.994Z,10.43
2023-02-11T20:24:25.783Z,12.02
2023-02-11T20:31:10.034Z,7.18
2023-02-11T20:34:26.530Z,8.82
2023-02-11T20:37:10.612Z,10.75
2023-02-11T20:40:21.858Z,8.75
2023-02-11T20:43:42.282Z,5.90
2023-02-11T20:46:53.065Z,6.93
2023-02-11T20:50:19.574Z,8.23
2023-02-11T20:53:38.565Z,6.10
2023-02-11T20:56:10.108Z,6.22
2023-02-11T21:07:44.040Z,7.47
2023-02-11T21:13:46.764Z,6.93
2023-02-11T21:19:21.326Z,6.43
2023-02-11T21:26:52.075Z,6.07
2023-02-11T21:28:55.930Z,7.15
2023-02-11T21:31:52.784Z,7.25
2023-02-11T21:37:56.391Z,7.93
2023-02-11T21:58:23.160Z,7.22
2023-02-11T22:21:59.436Z,6.68
2023-02-11T22:29:49.889Z,5.38
2023-02-11T23:03:07.681Z,7.10
2023-02-11T23:07:18.046Z,8.75
